sensor_id;sensor_type;location;lat;lon;timestamp;P1;durP1;ratioP1;P2;durP2;ratioP2
41253;SDS011;26987;59.928;30.306;2022-10-16T00:01:35;14.55;;;6.43;;
41253;SDS011;26987;59.928;30.306;2022-10-16T00:04:03;11.02;;;7.70;;
41253;SDS011;26987;59.928;30.306;2022-10-16T00:06:33;12.30;;;7.57;;
41253;SDS011;26987;59.928;30.306;2022-10-16T00:09:00;11.73;;;7.47;;
41253;SDS011;26987;59.928;30.306;2022-10-16T00:11:29;11.27;;;7.10;;
41253;SDS011;26987;59.928;30.306;2022-10-16T00:14:00;16.35;;;6.85;;
41253;SDS011;26987;59.928;30.306;2022-10-16T00:16:29;11.88;;;7.05;;
41253;SDS011;26987;59.928;30.306;2022-10-16T00:18:58;9.57;;;6.50;;
41253;SDS011;26987;59.928;30.306;2022-10-16T00:21:27;17.58;;;7.10;;
41253;SDS011;26987;59.928;30.306;2022-10-16T00:24:15;18.13;;;6.95;;
41253;SDS011;26987;59.928;30.306;2022-10-16T00:26:43;13.77;;;7.22;;
41253;SDS011;26987;59.928;30.306;2022-10-16T00:29:11;13.00;;;7.03;;
41253;SDS011;26987;59.928;30.306;2022-10-16T00:31:39;12.57;;;7.03;;
41253;SDS011;26987;59.928;30.306;2022-10-16T00:34:07;13.18;;;6.82;;
41253;SDS011;26987;59.928;30.306;2022-10-16T00:36:35;14.68;;;6.85;;
41253;SDS011;26987;59.928;30.306;2022-10-16T00:39:03;15.57;;;7.18;;
41253;SDS011;26987;59.928;30.306;2022-10-16T00:41:33;14.63;;;7.07;;
41253;SDS011;26987;59.928;30.306;2022-10-16T00:44:02;11.35;;;7.28;;
41253;SDS011;26987;59.928;30.306;2022-10-16T00:46:33;15.30;;;6.47;;
41253;SDS011;26987;59.928;30.306;2022-10-16T00:49:06;12.95;;;7.50;;
41253;SDS011;26987;59.928;30.306;2022-10-16T00:51:37;15.70;;;7.32;;
41253;SDS011;26987;59.928;30.306;2022-10-16T00:54:09;16.30;;;7.10;;
41253;SDS011;26987;59.928;30.306;2022-10-16T00:56:42;12.20;;;6.65;;
41253;SDS011;26987;59.928;30.306;2022-10-16T00:59:14;11.55;;;6.57;;
41253;SDS011;26987;59.928;30.306;2022-10-16T01:01:44;13.88;;;6.70;;
41253;SDS011;26987;59.928;30.306;2022-10-16T01:04:12;13.18;;;6.68;;
41253;SDS011;26987;59.928;30.306;2022-10-16T01:06:48;12.13;;;6.75;;
41253;SDS011;26987;59.928;30.306;2022-10-16T01:09:23;12.40;;;6.55;;
41253;SDS011;26987;59.928;30.306;2022-10-16T01:12:04;13.55;;;6.18;;
41253;SDS011;26987;59.928;30.306;2022-10-16T01:14:40;8.63;;;6.07;;
41253;SDS011;26987;59.928;30.306;2022-10-16T01:17:16;12.63;;;6.53;;
41253;SDS011;26987;59.928;30.306;2022-10-16T01:19:56;10.30;;;6.28;;
41253;SDS011;26987;59.928;30.306;2022-10-16T01:22:37;12.07;;;6.20;;
41253;SDS011;26987;59.928;30.306;2022-10-16T01:25:11;11.05;;;6.47;;
41253;SDS011;26987;59.928;30.306;2022-10-16T01:27:45;14.05;;;6.95;;
41253;SDS011;26987;59.928;30.306;2022-10-16T01:30:16;14.60;;;7.50;;
41253;SDS011;26987;59.928;30.306;2022-10-16T01:32:49;11.93;;;6.20;;
41253;SDS011;26987;59.928;30.306;2022-10-16T01:35:21;11.88;;;6.75;;
41253;SDS011;26987;59.928;30.306;2022-10-16T01:37:53;14.55;;;6.70;;
41253;SDS011;26987;59.928;30.306;2022-10-16T01:40:26;9.65;;;6.45;;
41253;SDS011;26987;59.928;30.306;2022-10-16T01:42:58;12.00;;;6.70;;
41253;SDS011;26987;59.928;30.306;2022-10-16T01:45:28;14.55;;;7.57;;
41253;SDS011;26987;59.928;30.306;2022-10-16T01:47:59;12.15;;;6.38;;
41253;SDS011;26987;59.928;30.306;2022-10-16T01:50:31;20.58;;;6.00;;
41253;SDS011;26987;59.928;30.306;2022-10-16T01:53:03;11.23;;;7.00;;
41253;SDS011;26987;59.928;30.306;2022-10-16T01:55:32;10.07;;;6.30;;
41253;SDS011;26987;59.928;30.306;2022-10-16T01:58:05;12.15;;;6.82;;
41253;SDS011;26987;59.928;30.306;2022-10-16T02:00:36;9.32;;;6.43;;
41253;SDS011;26987;59.928;30.306;2022-10-16T02:03:07;15.68;;;6.82;;
41253;SDS011;26987;59.928;30.306;2022-10-16T02:05:38;12.80;;;6.88;;
41253;SDS011;26987;59.928;30.306;2022-10-16T02:08:11;12.43;;;6.45;;
41253;SDS011;26987;59.928;30.306;2022-10-16T02:10:40;11.48;;;6.53;;
41253;SDS011;26987;59.928;30.306;2022-10-16T02:13:10;14.73;;;7.10;;
41253;SDS011;26987;59.928;30.306;2022-10-16T02:15:41;14.18;;;7.18;;
41253;SDS011;26987;59.928;30.306;2022-10-16T02:18:09;11.85;;;8.13;;
41253;SDS011;26987;59.928;30.306;2022-10-16T02:20:40;11.88;;;7.10;;
41253;SDS011;26987;59.928;30.306;2022-10-16T02:23:14;19.10;;;8.27;;
41253;SDS011;26987;59.928;30.306;2022-10-16T02:25:51;13.25;;;7.60;;
41253;SDS011;26987;59.928;30.306;2022-10-16T02:28:24;21.70;;;8.82;;
41253;SDS011;26987;59.928;30.306;2022-10-16T02:30:59;16.45;;;7.20;;
41253;SDS011;26987;59.928;30.306;2022-10-16T02:33:30;12.52;;;6.75;;
41253;SDS011;26987;59.928;30.306;2022-10-16T02:36:00;11.95;;;7.38;;
41253;SDS011;26987;59.928;30.306;2022-10-16T02:38:28;14.32;;;7.45;;
41253;SDS011;26987;59.928;30.306;2022-10-16T02:40:57;14.55;;;7.03;;
41253;SDS011;26987;59.928;30.306;2022-10-16T02:43:27;14.35;;;7.70;;
41253;SDS011;26987;59.928;30.306;2022-10-16T02:45:55;12.23;;;7.15;;
41253;SDS011;26987;59.928;30.306;2022-10-16T02:48:23;14.88;;;7.32;;
41253;SDS011;26987;59.928;30.306;2022-10-16T02:50:51;12.77;;;7.60;;
41253;SDS011;26987;59.928;30.306;2022-10-16T02:53:19;21.08;;;7.68;;
41253;SDS011;26987;59.928;30.306;2022-10-16T02:55:47;16.73;;;7.68;;
41253;SDS011;26987;59.928;30.306;2022-10-16T02:58:15;17.85;;;7.25;;
41253;SDS011;26987;59.928;30.306;2022-10-16T03:00:44;15.02;;;8.13;;
41253;SDS011;26987;59.928;30.306;2022-10-16T03:03:12;14.60;;;7.30;;
41253;SDS011;26987;59.928;30.306;2022-10-16T03:05:40;13.68;;;7.15;;
41253;SDS011;26987;59.928;30.306;2022-10-16T03:08:11;12.00;;;7.38;;
41253;SDS011;26987;59.928;30.306;2022-10-16T03:10:40;13.95;;;7.32;;
41253;SDS011;26987;59.928;30.306;2022-10-16T03:13:08;13.65;;;6.70;;
41253;SDS011;26987;59.928;30.306;2022-10-16T03:15:35;14.85;;;7.57;;
41253;SDS011;26987;59.928;30.306;2022-10-16T03:18:05;13.02;;;6.93;;
41253;SDS011;26987;59.928;30.306;2022-10-16T03:20:33;13.85;;;7.35;;
41253;SDS011;26987;59.928;30.306;2022-10-16T03:23:01;13.23;;;7.63;;
41253;SDS011;26987;59.928;30.306;2022-10-16T03:25:29;15.05;;;6.55;;
41253;SDS011;26987;59.928;30.306;2022-10-16T03:27:57;17.42;;;8.45;;
41253;SDS011;26987;59.928;30.306;2022-10-16T03:30:25;11.70;;;7.40;;
41253;SDS011;26987;59.928;30.306;2022-10-16T03:32:53;16.10;;;8.15;;
41253;SDS011;26987;59.928;30.306;2022-10-16T03:35:22;14.88;;;8.02;;
41253;SDS011;26987;59.928;30.306;2022-10-16T03:37:51;13.60;;;7.10;;
41253;SDS011;26987;59.928;30.306;2022-10-16T03:40:19;15.20;;;7.65;;
41253;SDS011;26987;59.928;30.306;2022-10-16T03:42:47;14.95;;;7.53;;
41253;SDS011;26987;59.928;30.306;2022-10-16T03:45:15;11.57;;;7.32;;
41253;SDS011;26987;59.928;30.306;2022-10-16T03:47:43;14.07;;;7.72;;
41253;SDS011;26987;59.928;30.306;2022-10-16T03:50:11;12.23;;;7.25;;
41253;SDS011;26987;59.928;30.306;2022-10-16T03:52:40;10.68;;;7.22;;
41253;SDS011;26987;59.928;30.306;2022-10-16T03:55:08;15.93;;;8.38;;
41253;SDS011;26987;59.928;30.306;2022-10-16T03:57:36;10.90;;;7.97;;
41253;SDS011;26987;59.928;30.306;2022-10-16T04:00:04;16.27;;;7.28;;
41253;SDS011;26987;59.928;30.306;2022-10-16T04:02:38;18.25;;;7.57;;
41253;SDS011;26987;59.928;30.306;2022-10-16T04:05:06;20.10;;;9.52;;
41253;SDS011;26987;59.928;30.306;2022-10-16T04:07:34;12.93;;;7.03;;
41253;SDS011;26987;59.928;30.306;2022-10-16T04:10:04;13.13;;;7.32;;
41253;SDS011;26987;59.928;30.306;2022-10-16T04:12:33;18.00;;;7.57;;
41253;SDS011;26987;59.928;30.306;2022-10-16T04:15:01;13.50;;;7.82;;
41253;SDS011;26987;59.928;30.306;2022-10-16T04:17:29;15.70;;;8.32;;
41253;SDS011;26987;59.928;30.306;2022-10-16T04:19:57;13.32;;;7.30;;
41253;SDS011;26987;59.928;30.306;2022-10-16T04:22:25;17.45;;;7.15;;
41253;SDS011;26987;59.928;30.306;2022-10-16T04:24:53;10.52;;;6.82;;
41253;SDS011;26987;59.928;30.306;2022-10-16T04:27:22;22.27;;;9.18;;
41253;SDS011;26987;59.928;30.306;2022-10-16T04:29:50;13.65;;;7.88;;
41253;SDS011;26987;59.928;30.306;2022-10-16T04:32:18;14.30;;;8.00;;
41253;SDS011;26987;59.928;30.306;2022-10-16T04:34:46;12.07;;;6.95;;
41253;SDS011;26987;59.928;30.306;2022-10-16T04:37:14;14.80;;;7.15;;
41253;SDS011;26987;59.928;30.306;2022-10-16T04:39:42;15.07;;;7.60;;
41253;SDS011;26987;59.928;30.306;2022-10-16T04:42:10;15.80;;;8.02;;
41253;SDS011;26987;59.928;30.306;2022-10-16T04:44:40;15.43;;;7.40;;
41253;SDS011;26987;59.928;30.306;2022-10-16T04:47:08;19.95;;;7.95;;
41253;SDS011;26987;59.928;30.306;2022-10-16T04:49:36;14.45;;;8.18;;
41253;SDS011;26987;59.928;30.306;2022-10-16T04:52:04;14.10;;;7.53;;
41253;SDS011;26987;59.928;30.306;2022-10-16T04:54:32;13.75;;;7.38;;
41253;SDS011;26987;59.928;30.306;2022-10-16T04:57:00;11.02;;;7.10;;
41253;SDS011;26987;59.928;30.306;2022-10-16T04:59:28;14.65;;;7.55;;
41253;SDS011;26987;59.928;30.306;2022-10-16T05:01:57;16.02;;;7.75;;
41253;SDS011;26987;59.928;30.306;2022-10-16T05:04:25;13.82;;;7.32;;
41253;SDS011;26987;59.928;30.306;2022-10-16T05:06:53;12.85;;;7.60;;
41253;SDS011;26987;59.928;30.306;2022-10-16T05:09:20;13.60;;;7.25;;
41253;SDS011;26987;59.928;30.306;2022-10-16T05:11:48;11.95;;;7.50;;
41253;SDS011;26987;59.928;30.306;2022-10-16T05:14:16;17.13;;;7.47;;
41253;SDS011;26987;59.928;30.306;2022-10-16T05:16:44;13.55;;;7.72;;
41253;SDS011;26987;59.928;30.306;2022-10-16T05:19:15;16.58;;;7.43;;
41253;SDS011;26987;59.928;30.306;2022-10-16T05:21:43;14.10;;;6.75;;
41253;SDS011;26987;59.928;30.306;2022-10-16T05:24:11;12.80;;;7.68;;
41253;SDS011;26987;59.928;30.306;2022-10-16T05:26:40;15.32;;;7.25;;
41253;SDS011;26987;59.928;30.306;2022-10-16T05:29:08;13.07;;;6.65;;
41253;SDS011;26987;59.928;30.306;2022-10-16T05:31:36;21.88;;;8.23;;
41253;SDS011;26987;59.928;30.306;2022-10-16T05:34:05;14.30;;;6.55;;
41253;SDS011;26987;59.928;30.306;2022-10-16T05:36:34;13.85;;;7.00;;
41253;SDS011;26987;59.928;30.306;2022-10-16T05:39:02;11.70;;;6.22;;
41253;SDS011;26987;59.928;30.306;2022-10-16T05:41:31;12.00;;;6.80;;
41253;SDS011;26987;59.928;30.306;2022-10-16T05:43:59;12.50;;;7.13;;
41253;SDS011;26987;59.928;30.306;2022-10-16T05:46:27;11.35;;;6.70;;
41253;SDS011;26987;59.928;30.306;2022-10-16T05:48:55;11.43;;;6.72;;
41253;SDS011;26987;59.928;30.306;2022-10-16T05:51:23;13.63;;;6.35;;
41253;SDS011;26987;59.928;30.306;2022-10-16T05:53:52;13.65;;;6.80;;
41253;SDS011;26987;59.928;30.306;2022-10-16T05:56:20;13.20;;;6.25;;
41253;SDS011;26987;59.928;30.306;2022-10-16T05:58:49;14.00;;;6.85;;
41253;SDS011;26987;59.928;30.306;2022-10-16T06:01:17;13.63;;;6.15;;
41253;SDS011;26987;59.928;30.306;2022-10-16T06:03:46;12.80;;;6.65;;
41253;SDS011;26987;59.928;30.306;2022-10-16T06:06:15;15.05;;;7.57;;
41253;SDS011;26987;59.928;30.306;2022-10-16T06:08:44;14.05;;;7.03;;
41253;SDS011;26987;59.928;30.306;2022-10-16T06:11:15;10.88;;;6.95;;
41253;SDS011;26987;59.928;30.306;2022-10-16T06:13:44;13.80;;;7.28;;
41253;SDS011;26987;59.928;30.306;2022-10-16T06:16:13;11.38;;;6.10;;
41253;SDS011;26987;59.928;30.306;2022-10-16T06:18:41;14.05;;;7.20;;
41253;SDS011;26987;59.928;30.306;2022-10-16T06:21:10;13.52;;;6.63;;
41253;SDS011;26987;59.928;30.306;2022-10-16T06:23:39;15.95;;;6.28;;
41253;SDS011;26987;59.928;30.306;2022-10-16T06:26:07;12.18;;;6.28;;
41253;SDS011;26987;59.928;30.306;2022-10-16T06:28:37;15.93;;;7.10;;
41253;SDS011;26987;59.928;30.306;2022-10-16T06:31:06;10.48;;;6.95;;
41253;SDS011;26987;59.928;30.306;2022-10-16T06:33:36;11.20;;;6.15;;
41253;SDS011;26987;59.928;30.306;2022-10-16T06:36:05;10.98;;;6.30;;
41253;SDS011;26987;59.928;30.306;2022-10-16T06:38:35;16.67;;;6.68;;
41253;SDS011;26987;59.928;30.306;2022-10-16T06:41:04;20.70;;;8.27;;
41253;SDS011;26987;59.928;30.306;2022-10-16T06:43:33;17.73;;;6.60;;
41253;SDS011;26987;59.928;30.306;2022-10-16T06:46:03;15.23;;;6.90;;
41253;SDS011;26987;59.928;30.306;2022-10-16T06:48:33;12.48;;;7.00;;
41253;SDS011;26987;59.928;30.306;2022-10-16T06:51:02;12.82;;;6.97;;
41253;SDS011;26987;59.928;30.306;2022-10-16T06:53:32;13.88;;;6.80;;
41253;SDS011;26987;59.928;30.306;2022-10-16T06:56:06;14.10;;;6.43;;
41253;SDS011;26987;59.928;30.306;2022-10-16T06:58:35;11.95;;;7.05;;
41253;SDS011;26987;59.928;30.306;2022-10-16T07:01:04;16.00;;;6.65;;
41253;SDS011;26987;59.928;30.306;2022-10-16T07:03:35;11.15;;;6.50;;
41253;SDS011;26987;59.928;30.306;2022-10-16T07:06:05;13.20;;;6.93;;
41253;SDS011;26987;59.928;30.306;2022-10-16T07:08:35;15.57;;;6.90;;
41253;SDS011;26987;59.928;30.306;2022-10-16T07:11:04;12.93;;;6.72;;
41253;SDS011;26987;59.928;30.306;2022-10-16T07:13:34;17.27;;;6.57;;
41253;SDS011;26987;59.928;30.306;2022-10-16T07:16:07;16.27;;;6.70;;
41253;SDS011;26987;59.928;30.306;2022-10-16T07:18:38;13.60;;;6.28;;
41253;SDS011;26987;59.928;30.306;2022-10-16T07:21:08;16.77;;;6.95;;
41253;SDS011;26987;59.928;30.306;2022-10-16T07:23:37;13.27;;;6.30;;
41253;SDS011;26987;59.928;30.306;2022-10-16T07:26:06;11.60;;;5.68;;
41253;SDS011;26987;59.928;30.306;2022-10-16T07:28:34;12.07;;;6.97;;
41253;SDS011;26987;59.928;30.306;2022-10-16T07:31:02;12.15;;;5.97;;
41253;SDS011;26987;59.928;30.306;2022-10-16T07:33:33;12.27;;;5.45;;
41253;SDS011;26987;59.928;30.306;2022-10-16T07:36:04;27.88;;;6.45;;
41253;SDS011;26987;59.928;30.306;2022-10-16T07:38:38;11.85;;;5.95;;
41253;SDS011;26987;59.928;30.306;2022-10-16T07:41:09;10.98;;;5.90;;
41253;SDS011;26987;59.928;30.306;2022-10-16T07:43:38;12.32;;;5.88;;
41253;SDS011;26987;59.928;30.306;2022-10-16T07:46:06;14.95;;;6.43;;
41253;SDS011;26987;59.928;30.306;2022-10-16T07:48:35;13.45;;;6.30;;
41253;SDS011;26987;59.928;30.306;2022-10-16T07:51:04;16.55;;;5.80;;
41253;SDS011;26987;59.928;30.306;2022-10-16T07:53:33;15.30;;;6.40;;
41253;SDS011;26987;59.928;30.306;2022-10-16T07:56:02;18.27;;;6.78;;
41253;SDS011;26987;59.928;30.306;2022-10-16T07:58:31;15.00;;;5.93;;
41253;SDS011;26987;59.928;30.306;2022-10-16T08:01:03;20.15;;;6.50;;
41253;SDS011;26987;59.928;30.306;2022-10-16T08:03:32;13.30;;;6.13;;
41253;SDS011;26987;59.928;30.306;2022-10-16T08:06:01;23.13;;;5.93;;
41253;SDS011;26987;59.928;30.306;2022-10-16T08:08:30;11.60;;;6.03;;
41253;SDS011;26987;59.928;30.306;2022-10-16T08:10:58;16.15;;;6.55;;
41253;SDS011;26987;59.928;30.306;2022-10-16T08:13:26;16.58;;;6.63;;
41253;SDS011;26987;59.928;30.306;2022-10-16T08:15:54;14.10;;;6.03;;
41253;SDS011;26987;59.928;30.306;2022-10-16T08:18:22;12.68;;;5.88;;
41253;SDS011;26987;59.928;30.306;2022-10-16T08:20:54;11.30;;;5.93;;
41253;SDS011;26987;59.928;30.306;2022-10-16T08:23:25;16.17;;;6.07;;
41253;SDS011;26987;59.928;30.306;2022-10-16T08:25:53;12.95;;;5.75;;
41253;SDS011;26987;59.928;30.306;2022-10-16T08:28:22;11.52;;;6.40;;
41253;SDS011;26987;59.928;30.306;2022-10-16T08:30:50;12.85;;;6.03;;
41253;SDS011;26987;59.928;30.306;2022-10-16T08:33:18;12.40;;;5.93;;
41253;SDS011;26987;59.928;30.306;2022-10-16T08:35:50;12.60;;;5.45;;
41253;SDS011;26987;59.928;30.306;2022-10-16T08:38:20;12.32;;;5.70;;
41253;SDS011;26987;59.928;30.306;2022-10-16T08:40:49;13.95;;;6.32;;
41253;SDS011;26987;59.928;30.306;2022-10-16T08:43:23;15.98;;;6.20;;
41253;SDS011;26987;59.928;30.306;2022-10-16T08:46:06;15.32;;;6.22;;
41253;SDS011;26987;59.928;30.306;2022-10-16T08:48:45;10.85;;;6.28;;
41253;SDS011;26987;59.928;30.306;2022-10-16T08:51:18;13.68;;;6.13;;
41253;SDS011;26987;59.928;30.306;2022-10-16T08:53:49;12.73;;;6.13;;
41253;SDS011;26987;59.928;30.306;2022-10-16T08:56:22;13.35;;;6.20;;
41253;SDS011;26987;59.928;30.306;2022-10-16T08:58:52;15.18;;;5.35;;
41253;SDS011;26987;59.928;30.306;2022-10-16T09:01:21;17.48;;;6.10;;
41253;SDS011;26987;59.928;30.306;2022-10-16T09:03:58;15.18;;;5.75;;
41253;SDS011;26987;59.928;30.306;2022-10-16T09:06:40;11.23;;;6.38;;
41253;SDS011;26987;59.928;30.306;2022-10-16T09:12:18;15.05;;;6.47;;
41253;SDS011;26987;59.928;30.306;2022-10-16T09:17:30;14.68;;;6.68;;
41253;SDS011;26987;59.928;30.306;2022-10-16T09:22:56;15.98;;;6.38;;
41253;SDS011;26987;59.928;30.306;2022-10-16T09:25:42;12.20;;;6.03;;
41253;SDS011;26987;59.928;30.306;2022-10-16T09:28:13;19.73;;;6.20;;
41253;SDS011;26987;59.928;30.306;2022-10-16T09:30:41;11.85;;;6.22;;
41253;SDS011;26987;59.928;30.306;2022-10-16T09:33:10;17.73;;;6.28;;
41253;SDS011;26987;59.928;30.306;2022-10-16T09:35:40;12.70;;;5.72;;
41253;SDS011;26987;59.928;30.306;2022-10-16T09:38:20;17.13;;;6.25;;
41253;SDS011;26987;59.928;30.306;2022-10-16T09:40:50;14.55;;;6.32;;
41253;SDS011;26987;59.928;30.306;2022-10-16T09:43:24;14.45;;;6.63;;
41253;SDS011;26987;59.928;30.306;2022-10-16T09:45:57;15.57;;;6.28;;
41253;SDS011;26987;59.928;30.306;2022-10-16T09:48:27;13.18;;;6.07;;
41253;SDS011;26987;59.928;30.306;2022-10-16T09:50:59;11.68;;;6.10;;
41253;SDS011;26987;59.928;30.306;2022-10-16T09:53:40;13.32;;;5.63;;
41253;SDS011;26987;59.928;30.306;2022-10-16T09:56:10;16.13;;;5.78;;
41253;SDS011;26987;59.928;30.306;2022-10-16T09:58:49;13.30;;;5.65;;
41253;SDS011;26987;59.928;30.306;2022-10-16T10:01:18;10.95;;;6.13;;
41253;SDS011;26987;59.928;30.306;2022-10-16T10:03:47;12.07;;;6.25;;
41253;SDS011;26987;59.928;30.306;2022-10-16T10:06:17;12.77;;;6.70;;
41253;SDS011;26987;59.928;30.306;2022-10-16T10:08:53;18.52;;;6.45;;
41253;SDS011;26987;59.928;30.306;2022-10-16T10:11:42;47.97;;;8.40;;
41253;SDS011;26987;59.928;30.306;2022-10-16T10:14:17;17.42;;;6.68;;
41253;SDS011;26987;59.928;30.306;2022-10-16T10:16:48;28.58;;;8.77;;
41253;SDS011;26987;59.928;30.306;2022-10-16T10:19:18;11.90;;;6.07;;
41253;SDS011;26987;59.928;30.306;2022-10-16T10:21:47;14.13;;;6.25;;
41253;SDS011;26987;59.928;30.306;2022-10-16T10:24:16;12.85;;;6.88;;
41253;SDS011;26987;59.928;30.306;2022-10-16T10:26:49;12.77;;;6.88;;
41253;SDS011;26987;59.928;30.306;2022-10-16T10:29:40;14.05;;;6.25;;
41253;SDS011;26987;59.928;30.306;2022-10-16T10:32:18;14.77;;;6.95;;
41253;SDS011;26987;59.928;30.306;2022-10-16T10:35:05;10.95;;;6.63;;
41253;SDS011;26987;59.928;30.306;2022-10-16T10:37:48;16.05;;;6.43;;
41253;SDS011;26987;59.928;30.306;2022-10-16T10:40:29;12.23;;;6.35;;
41253;SDS011;26987;59.928;30.306;2022-10-16T10:43:04;10.13;;;5.53;;
41253;SDS011;26987;59.928;30.306;2022-10-16T10:45:43;14.95;;;6.13;;
41253;SDS011;26987;59.928;30.306;2022-10-16T10:48:17;19.60;;;6.22;;
41253;SDS011;26987;59.928;30.306;2022-10-16T10:50:54;12.43;;;6.00;;
41253;SDS011;26987;59.928;30.306;2022-10-16T10:53:29;13.93;;;5.72;;
41253;SDS011;26987;59.928;30.306;2022-10-16T10:56:11;10.55;;;5.25;;
41253;SDS011;26987;59.928;30.306;2022-10-16T10:58:50;18.05;;;5.47;;
41253;SDS011;26987;59.928;30.306;2022-10-16T11:01:35;13.10;;;5.43;;
41253;SDS011;26987;59.928;30.306;2022-10-16T11:04:16;12.52;;;5.22;;
41253;SDS011;26987;59.928;30.306;2022-10-16T11:07:02;10.57;;;5.40;;
41253;SDS011;26987;59.928;30.306;2022-10-16T11:09:33;13.50;;;5.60;;
41253;SDS011;26987;59.928;30.306;2022-10-16T11:12:07;10.90;;;5.22;;
41253;SDS011;26987;59.928;30.306;2022-10-16T11:14:45;10.88;;;5.35;;
41253;SDS011;26987;59.928;30.306;2022-10-16T11:17:18;15.23;;;5.70;;
41253;SDS011;26987;59.928;30.306;2022-10-16T11:19:52;12.23;;;5.72;;
41253;SDS011;26987;59.928;30.306;2022-10-16T11:22:26;12.10;;;5.25;;
41253;SDS011;26987;59.928;30.306;2022-10-16T11:25:00;11.15;;;5.63;;
41253;SDS011;26987;59.928;30.306;2022-10-16T11:27:40;9.60;;;6.00;;
41253;SDS011;26987;59.928;30.306;2022-10-16T11:30:13;9.95;;;6.07;;
41253;SDS011;26987;59.928;30.306;2022-10-16T11:32:50;11.65;;;6.20;;
41253;SDS011;26987;59.928;30.306;2022-10-16T11:35:32;11.38;;;5.50;;
41253;SDS011;26987;59.928;30.306;2022-10-16T11:38:10;15.02;;;5.90;;
41253;SDS011;26987;59.928;30.306;2022-10-16T11:40:43;7.20;;;4.20;;
41253;SDS011;26987;59.928;30.306;2022-10-16T11:43:14;10.95;;;5.18;;
41253;SDS011;26987;59.928;30.306;2022-10-16T11:45:48;12.98;;;5.63;;
41253;SDS011;26987;59.928;30.306;2022-10-16T11:48:23;12.65;;;5.32;;
41253;SDS011;26987;59.928;30.306;2022-10-16T11:50:56;9.35;;;5.45;;
41253;SDS011;26987;59.928;30.306;2022-10-16T11:53:34;22.27;;;7.78;;
41253;SDS011;26987;59.928;30.306;2022-10-16T11:56:11;9.90;;;6.00;;
41253;SDS011;26987;59.928;30.306;2022-10-16T11:58:41;15.52;;;6.63;;
41253;SDS011;26987;59.928;30.306;2022-10-16T12:01:19;15.00;;;5.65;;
41253;SDS011;26987;59.928;30.306;2022-10-16T12:03:59;10.70;;;5.40;;
41253;SDS011;26987;59.928;30.306;2022-10-16T12:06:39;12.68;;;5.63;;
41253;SDS011;26987;59.928;30.306;2022-10-16T12:09:13;16.30;;;6.32;;
41253;SDS011;26987;59.928;30.306;2022-10-16T12:11:46;10.05;;;5.57;;
41253;SDS011;26987;59.928;30.306;2022-10-16T12:14:19;11.07;;;5.60;;
41253;SDS011;26987;59.928;30.306;2022-10-16T12:16:53;11.82;;;6.38;;
41253;SDS011;26987;59.928;30.306;2022-10-16T12:19:24;9.45;;;5.57;;
41253;SDS011;26987;59.928;30.306;2022-10-16T12:21:54;10.38;;;5.82;;
41253;SDS011;26987;59.928;30.306;2022-10-16T12:24:35;11.88;;;6.43;;
41253;SDS011;26987;59.928;30.306;2022-10-16T12:27:05;11.48;;;6.03;;
41253;SDS011;26987;59.928;30.306;2022-10-16T12:29:45;12.52;;;7.32;;
41253;SDS011;26987;59.928;30.306;2022-10-16T12:32:21;11.75;;;6.60;;
41253;SDS011;26987;59.928;30.306;2022-10-16T12:34:55;11.52;;;5.80;;
41253;SDS011;26987;59.928;30.306;2022-10-16T12:37:26;11.10;;;6.70;;
41253;SDS011;26987;59.928;30.306;2022-10-16T12:39:58;14.32;;;6.72;;
41253;SDS011;26987;59.928;30.306;2022-10-16T12:42:38;12.18;;;6.50;;
41253;SDS011;26987;59.928;30.306;2022-10-16T12:45:21;16.42;;;7.13;;
41253;SDS011;26987;59.928;30.306;2022-10-16T12:47:55;17.40;;;6.75;;
41253;SDS011;26987;59.928;30.306;2022-10-16T12:50:32;12.55;;;6.07;;
41253;SDS011;26987;59.928;30.306;2022-10-16T12:53:02;16.25;;;6.13;;
41253;SDS011;26987;59.928;30.306;2022-10-16T12:55:33;18.70;;;6.35;;
41253;SDS011;26987;59.928;30.306;2022-10-16T12:58:24;13.70;;;6.55;;
41253;SDS011;26987;59.928;30.306;2022-10-16T13:01:08;10.68;;;6.25;;
41253;SDS011;26987;59.928;30.306;2022-10-16T13:03:54;14.32;;;6.47;;
41253;SDS011;26987;59.928;30.306;2022-10-16T13:06:38;15.98;;;6.30;;
41253;SDS011;26987;59.928;30.306;2022-10-16T13:12:08;17.02;;;5.93;;
41253;SDS011;26987;59.928;30.306;2022-10-16T13:17:38;12.23;;;5.53;;
41253;SDS011;26987;59.928;30.306;2022-10-16T13:20:15;12.40;;;6.72;;
41253;SDS011;26987;59.928;30.306;2022-10-16T13:22:54;14.00;;;6.65;;
41253;SDS011;26987;59.928;30.306;2022-10-16T13:25:32;13.40;;;6.57;;
41253;SDS011;26987;59.928;30.306;2022-10-16T13:28:08;13.40;;;6.80;;
41253;SDS011;26987;59.928;30.306;2022-10-16T13:30:39;11.20;;;6.45;;
41253;SDS011;26987;59.928;30.306;2022-10-16T13:33:12;12.52;;;6.50;;
41253;SDS011;26987;59.928;30.306;2022-10-16T13:35:47;21.33;;;7.60;;
41253;SDS011;26987;59.928;30.306;2022-10-16T13:38:19;12.70;;;7.95;;
41253;SDS011;26987;59.928;30.306;2022-10-16T13:40:49;14.00;;;8.15;;
41253;SDS011;26987;59.928;30.306;2022-10-16T13:43:22;17.23;;;8.55;;
41253;SDS011;26987;59.928;30.306;2022-10-16T13:45:57;14.23;;;8.00;;
41253;SDS011;26987;59.928;30.306;2022-10-16T13:48:28;22.38;;;9.32;;
41253;SDS011;26987;59.928;30.306;2022-10-16T13:51:03;18.80;;;9.00;;
41253;SDS011;26987;59.928;30.306;2022-10-16T13:53:35;14.07;;;7.57;;
41253;SDS011;26987;59.928;30.306;2022-10-16T13:56:04;14.05;;;8.35;;
41253;SDS011;26987;59.928;30.306;2022-10-16T13:58:34;17.00;;;8.48;;
41253;SDS011;26987;59.928;30.306;2022-10-16T14:01:02;21.83;;;10.23;;
41253;SDS011;26987;59.928;30.306;2022-10-16T14:03:32;16.92;;;8.90;;
41253;SDS011;26987;59.928;30.306;2022-10-16T14:06:03;17.30;;;9.13;;
41253;SDS011;26987;59.928;30.306;2022-10-16T14:08:36;17.02;;;8.75;;
41253;SDS011;26987;59.928;30.306;2022-10-16T14:11:04;15.30;;;8.38;;
41253;SDS011;26987;59.928;30.306;2022-10-16T14:13:34;17.70;;;8.80;;
41253;SDS011;26987;59.928;30.306;2022-10-16T14:16:06;15.88;;;8.30;;
41253;SDS011;26987;59.928;30.306;2022-10-16T14:18:36;19.35;;;8.27;;
41253;SDS011;26987;59.928;30.306;2022-10-16T14:21:07;16.15;;;9.00;;
41253;SDS011;26987;59.928;30.306;2022-10-16T14:23:43;16.33;;;8.93;;
41253;SDS011;26987;59.928;30.306;2022-10-16T14:26:15;24.58;;;9.75;;
41253;SDS011;26987;59.928;30.306;2022-10-16T14:28:45;21.93;;;9.97;;
41253;SDS011;26987;59.928;30.306;2022-10-16T14:31:25;17.75;;;9.23;;
41253;SDS011;26987;59.928;30.306;2022-10-16T14:33:55;20.83;;;9.90;;
41253;SDS011;26987;59.928;30.306;2022-10-16T14:36:23;24.77;;;12.00;;
41253;SDS011;26987;59.928;30.306;2022-10-16T14:38:57;19.70;;;9.60;;
41253;SDS011;26987;59.928;30.306;2022-10-16T14:41:29;24.67;;;11.35;;
41253;SDS011;26987;59.928;30.306;2022-10-16T14:44:01;22.92;;;10.55;;
41253;SDS011;26987;59.928;30.306;2022-10-16T14:46:32;20.58;;;11.10;;
41253;SDS011;26987;59.928;30.306;2022-10-16T14:49:03;24.15;;;12.25;;
41253;SDS011;26987;59.928;30.306;2022-10-16T14:51:41;21.40;;;11.15;;
41253;SDS011;26987;59.928;30.306;2022-10-16T14:54:12;28.05;;;11.23;;
41253;SDS011;26987;59.928;30.306;2022-10-16T14:56:43;24.65;;;11.98;;
41253;SDS011;26987;59.928;30.306;2022-10-16T14:59:14;24.65;;;10.90;;
41253;SDS011;26987;59.928;30.306;2022-10-16T15:01:45;20.10;;;12.00;;